createdAt,value
2022-09-03T00:01:03.097Z,2.28
2022-09-03T00:03:47.496Z,2.20
2022-09-03T00:06:30.407Z,2.45
2022-09-03T00:09:31.680Z,2.67
2022-09-03T00:12:20.074Z,3.85
2022-09-03T00:15:04.243Z,2.60
2022-09-03T00:17:42.242Z,2.65
2022-09-03T00:20:36.833Z,2.40
2022-09-03T00:23:21.776Z,2.47
2022-09-03T00:26:17.524Z,2.47
2022-09-03T00:29:18.190Z,2.70
2022-09-03T00:31:58.777Z,2.40
2022-09-03T00:34:36.248Z,2.40
2022-09-03T00:37:03.816Z,2.50
2022-09-03T00:39:31.111Z,2.30
2022-09-03T00:42:38.595Z,2.40
2022-09-03T00:45:34.019Z,2.20
2022-09-03T00:48:39.848Z,2.13
2022-09-03T00:51:50.111Z,1.92
2022-09-03T00:55:18.428Z,1.80
2022-09-03T00:58:07.014Z,2.22
2022-09-03T01:00:43.798Z,2.17
2022-09-03T01:04:06.583Z,2.30
2022-09-03T01:07:09.435Z,2.00
2022-09-03T01:10:39.700Z,2.40
2022-09-03T01:13:27.980Z,1.90
2022-09-03T01:16:44.544Z,2.30
2022-09-03T01:20:10.975Z,2.10
2022-09-03T01:23:20.570Z,1.77
2022-09-03T01:26:27.576Z,1.98
2022-09-03T01:29:28.481Z,2.10
2022-09-03T01:32:59.747Z,2.25
2022-09-03T01:36:32.252Z,2.10
2022-09-03T01:39:20.766Z,2.10
2022-09-03T01:42:54.469Z,1.90
2022-09-03T01:45:45.196Z,1.88
2022-09-03T01:48:51.617Z,2.10
2022-09-03T01:51:29.584Z,1.88
2022-09-03T01:54:41.608Z,1.80
2022-09-03T01:57:46.002Z,1.75
2022-09-03T02:00:23.401Z,1.60
2022-09-03T02:02:53.489Z,1.55
2022-09-03T02:05:29.295Z,1.90
2022-09-03T02:08:09.556Z,2.00
2022-09-03T02:10:50.967Z,2.50
2022-09-03T02:13:29.306Z,2.35
2022-09-03T02:16:14.123Z,2.03
2022-09-03T02:18:51.104Z,2.13
2022-09-03T02:21:25.528Z,1.92
2022-09-03T02:23:53.177Z,1.80
2022-09-03T02:26:25.433Z,2.28
2022-09-03T02:28:55.956Z,2.50
2022-09-03T02:31:23.058Z,1.70
2022-09-03T02:33:51.887Z,1.87
2022-09-03T02:36:30.838Z,2.15
2022-09-03T02:38:58.785Z,1.83
2022-09-03T02:41:27.536Z,1.98
2022-09-03T02:44:14.274Z,1.90
2022-09-03T02:46:52.071Z,2.05
2022-09-03T02:49:19.054Z,1.80
2022-09-03T02:51:46.610Z,2.08
2022-09-03T02:54:16.687Z,1.60
2022-09-03T02:56:48.441Z,2.53
2022-09-03T02:59:18.043Z,2.20
2022-09-03T03:01:46.715Z,2.40
2022-09-03T03:04:15.356Z,2.30
2022-09-03T03:06:42.365Z,1.98
2022-09-03T03:09:14.766Z,2.30
2022-09-03T03:11:41.824Z,1.88
2022-09-03T03:14:09.060Z,2.15
2022-09-03T03:16:37.134Z,1.95
2022-09-03T03:21:31.525Z,1.92
2022-09-03T03:23:58.560Z,1.90
2022-09-03T03:26:25.584Z,1.60
2022-09-03T03:29:04.819Z,1.80
2022-09-03T03:31:33.558Z,1.85
2022-09-03T03:34:03.913Z,1.95
2022-09-03T03:36:34.111Z,1.98
2022-09-03T03:39:02.364Z,1.98
2022-09-03T03:41:34.478Z,1.63
2022-09-03T03:44:08.995Z,1.92
2022-09-03T03:46:42.082Z,1.80
2022-09-03T03:49:11.167Z,1.85
2022-09-03T03:51:40.239Z,2.20
2022-09-03T03:54:07.540Z,1.88
2022-09-03T03:56:35.419Z,2.17
2022-09-03T03:59:04.524Z,2.22
2022-09-03T04:01:32.057Z,2.08
2022-09-03T04:04:00.649Z,2.28
2022-09-03T04:06:28.896Z,2.30
2022-09-03T04:08:56.046Z,2.20
2022-09-03T04:11:26.071Z,1.90
2022-09-03T04:13:54.383Z,2.25
2022-09-03T04:16:27.954Z,3.00
2022-09-03T04:18:57.364Z,2.08
2022-09-03T04:21:31.412Z,2.08
2022-09-03T04:23:59.457Z,2.83
2022-09-03T04:29:08.262Z,2.40
2022-09-03T04:31:38.776Z,2.38
2022-09-03T04:34:07.271Z,2.20
2022-09-03T04:36:35.193Z,2.40
2022-09-03T04:39:02.915Z,2.17
2022-09-03T04:41:32.327Z,1.80
2022-09-03T04:44:00.904Z,3.38
2022-09-03T04:46:33.954Z,2.50
2022-09-03T04:49:02.755Z,2.47
2022-09-03T04:51:31.899Z,2.50
2022-09-03T04:54:02.832Z,2.40
2022-09-03T04:56:34.707Z,2.60
2022-09-03T04:59:08.233Z,2.40
2022-09-03T05:01:39.628Z,2.88
2022-09-03T05:04:09.034Z,2.80
2022-09-03T05:06:37.736Z,2.70
2022-09-03T05:09:06.775Z,2.45
2022-09-03T05:11:33.818Z,2.90
2022-09-03T05:14:01.351Z,2.55
2022-09-03T05:16:31.132Z,2.85
2022-09-03T05:19:01.464Z,2.83
2022-09-03T05:21:30.806Z,3.00
2022-09-03T05:24:01.605Z,2.40
2022-09-03T05:26:36.156Z,2.83
2022-09-03T05:29:09.727Z,2.78
2022-09-03T05:31:39.722Z,2.92
2022-09-03T05:34:10.155Z,2.75
2022-09-03T05:36:41.033Z,3.05
2022-09-03T05:39:08.029Z,3.03
2022-09-03T05:41:35.573Z,2.75
2022-09-03T05:44:04.180Z,3.22
2022-09-03T05:46:37.029Z,3.60
2022-09-03T05:49:08.248Z,2.88
2022-09-03T05:51:42.597Z,3.42
2022-09-03T05:54:11.297Z,3.67
2022-09-03T05:56:41.146Z,3.20
2022-09-03T05:59:11.232Z,3.33
2022-09-03T06:01:50.316Z,3.35
2022-09-03T06:04:20.635Z,3.20
2022-09-03T06:06:49.896Z,3.47
2022-09-03T06:09:23.367Z,3.08
2022-09-03T06:11:52.566Z,3.20
2022-09-03T06:14:20.575Z,3.72
2022-09-03T06:16:50.671Z,3.13
2022-09-03T06:19:18.164Z,3.28
2022-09-03T06:21:47.695Z,3.22
2022-09-03T06:24:26.397Z,3.03
2022-09-03T06:26:58.299Z,3.40
2022-09-03T06:29:25.511Z,3.22
2022-09-03T06:31:52.601Z,3.67
2022-09-03T06:34:22.662Z,3.27
2022-09-03T06:36:49.806Z,3.10
2022-09-03T06:39:16.906Z,3.00
2022-09-03T06:41:45.973Z,3.60
2022-09-03T06:44:13.265Z,3.15
2022-09-03T06:46:45.071Z,4.60
2022-09-03T06:49:15.046Z,3.50
2022-09-03T06:51:44.106Z,3.35
2022-09-03T06:54:13.272Z,2.78
2022-09-03T06:56:41.953Z,3.00
2022-09-03T06:59:15.381Z,3.08
2022-09-03T07:01:46.261Z,3.22
2022-09-03T07:04:20.441Z,3.75
2022-09-03T07:06:48.138Z,3.40
2022-09-03T07:09:19.227Z,2.97
2022-09-03T07:11:48.572Z,2.85
2022-09-03T07:14:19.852Z,3.10
2022-09-03T07:16:50.410Z,2.60
2022-09-03T07:19:17.882Z,3.53
2022-09-03T07:21:50.003Z,2.72
2022-09-03T07:24:22.356Z,2.97
2022-09-03T07:26:50.375Z,2.75
2022-09-03T07:29:20.846Z,2.92
2022-09-03T07:31:53.682Z,3.05
2022-09-03T07:34:25.339Z,3.72
2022-09-03T07:36:53.404Z,2.75
2022-09-03T07:39:20.695Z,3.03
2022-09-03T07:41:48.383Z,2.75
2022-09-03T07:44:19.995Z,2.97
2022-09-03T07:46:51.283Z,2.63
2022-09-03T07:49:21.202Z,2.85
2022-09-03T07:51:50.989Z,2.70
2022-09-03T07:54:18.209Z,2.25
2022-09-03T07:56:45.223Z,2.42
2022-09-03T07:59:12.251Z,3.63
2022-09-03T08:01:41.529Z,2.60
2022-09-03T08:04:11.085Z,2.20
2022-09-03T08:06:39.795Z,2.40
2022-09-03T08:09:13.812Z,2.95
2022-09-03T08:11:44.014Z,2.42
2022-09-03T08:14:14.919Z,2.30
2022-09-03T08:16:50.080Z,2.13
2022-09-03T08:19:18.943Z,2.50
2022-09-03T08:21:47.463Z,2.40
2022-09-03T08:24:21.369Z,2.20
2022-09-03T08:26:52.137Z,2.15
2022-09-03T08:29:21.479Z,2.10
2022-09-03T08:31:49.171Z,2.22
2022-09-03T08:34:18.015Z,2.15
2022-09-03T08:36:47.249Z,2.00
2022-09-03T08:39:14.701Z,2.35
2022-09-03T08:41:53.569Z,2.33
2022-09-03T08:44:49.908Z,1.95
2022-09-03T08:48:05.056Z,1.73
2022-09-03T08:50:43.574Z,2.58
2022-09-03T08:56:12.789Z,1.77
2022-09-03T08:58:44.125Z,2.40
2022-09-03T09:01:34.284Z,1.73
2022-09-03T09:04:43.129Z,2.22
2022-09-03T09:07:45.449Z,2.15
2022-09-03T09:11:02.645Z,2.30
2022-09-03T09:14:09.921Z,1.90
2022-09-03T09:16:59.137Z,1.83
2022-09-03T09:20:09.839Z,1.80
2022-09-03T09:22:50.155Z,1.95
2022-09-03T09:25:26.389Z,2.00
2022-09-03T09:28:16.799Z,1.67
2022-09-03T09:30:50.254Z,1.60
2022-09-03T09:33:21.015Z,2.00
2022-09-03T09:35:50.220Z,1.65
2022-09-03T09:38:36.516Z,2.38
2022-09-03T09:41:27.516Z,1.90
2022-09-03T09:44:05.727Z,2.08
2022-09-03T09:46:42.347Z,2.00
2022-09-03T09:49:51.924Z,1.70
2022-09-03T09:52:26.072Z,1.63
2022-09-03T09:55:10.296Z,1.60
2022-09-03T09:57:38.902Z,1.50
2022-09-03T10:00:18.578Z,1.75
2022-09-03T10:02:55.012Z,1.40
2022-09-03T10:05:31.017Z,1.40
2022-09-03T10:08:22.107Z,1.90
2022-09-03T10:10:51.918Z,1.60
2022-09-03T10:13:41.923Z,1.85
2022-09-03T10:16:29.611Z,1.60
2022-09-03T10:19:21.164Z,1.70
2022-09-03T10:22:18.090Z,1.70
2022-09-03T10:25:03.402Z,1.50
2022-09-03T10:27:31.987Z,1.70
2022-09-03T10:30:00.872Z,1.95
2022-09-03T10:35:38.138Z,1.52
2022-09-03T10:38:34.778Z,2.08
2022-09-03T10:41:22.328Z,1.60
2022-09-03T10:44:23.062Z,1.50
2022-09-03T10:47:33.106Z,1.70
2022-09-03T10:50:34.308Z,1.67
2022-09-03T10:53:07.187Z,1.60
2022-09-03T10:56:15.451Z,1.45
2022-09-03T10:58:59.055Z,1.50
2022-09-03T11:01:50.765Z,1.20
2022-09-03T11:05:06.091Z,1.52
2022-09-03T11:08:03.378Z,1.40
2022-09-03T11:10:44.318Z,1.60
2022-09-03T11:13:46.194Z,1.63
2022-09-03T11:16:27.095Z,1.23
2022-09-03T11:19:12.478Z,1.50
2022-09-03T11:21:42.538Z,1.50
2022-09-03T11:24:23.573Z,1.50
2022-09-03T11:27:22.492Z,1.67
2022-09-03T11:30:07.340Z,1.40
2022-09-03T11:32:55.671Z,1.77
2022-09-03T11:35:31.852Z,1.60
2022-09-03T11:38:15.326Z,1.73
2022-09-03T11:41:27.151Z,1.60
2022-09-03T11:43:55.357Z,1.83
2022-09-03T11:46:22.378Z,1.30
2022-09-03T11:48:55.678Z,1.83
2022-09-03T11:51:32.318Z,1.75
2022-09-03T11:54:25.942Z,2.13
2022-09-03T11:57:16.376Z,1.38
2022-09-03T11:59:45.446Z,2.20
2022-09-03T12:02:31.059Z,1.80
2022-09-03T12:06:09.886Z,1.70
2022-09-03T12:09:14.523Z,1.85
2022-09-03T12:12:08.594Z,1.73
2022-09-03T12:15:14.992Z,1.80
2022-09-03T12:18:20.988Z,1.63
2022-09-03T12:21:00.978Z,1.77
2022-09-03T12:23:42.351Z,1.60
2022-09-03T12:26:17.785Z,1.60
2022-09-03T12:29:06.718Z,1.50
2022-09-03T12:31:53.045Z,1.40
2022-09-03T12:34:21.481Z,1.40
2022-09-03T12:36:54.290Z,1.88
2022-09-03T12:42:31.738Z,1.70
2022-09-03T12:45:16.636Z,2.08
2022-09-03T12:47:45.172Z,1.65
2022-09-03T12:50:24.524Z,1.67
2022-09-03T12:53:04.105Z,1.55
2022-09-03T12:55:51.793Z,2.00
2022-09-03T12:58:32.059Z,1.92
2022-09-03T13:01:31.387Z,2.10
2022-09-03T13:04:17.128Z,2.22
2022-09-03T13:07:20.532Z,2.20
2022-09-03T13:09:49.214Z,1.90
2022-09-03T13:12:51.132Z,2.13
2022-09-03T13:15:27.039Z,1.88
2022-09-03T13:18:42.840Z,1.90
2022-09-03T13:21:27.980Z,1.80
2022-09-03T13:24:39.690Z,2.08
2022-09-03T13:27:27.474Z,2.47
2022-09-03T13:30:11.894Z,2.00
2022-09-03T13:33:09.485Z,2.25
2022-09-03T13:36:46.026Z,2.22
2022-09-03T13:39:51.324Z,1.98
2022-09-03T13:42:45.735Z,1.90
2022-09-03T13:46:02.206Z,2.33
2022-09-03T13:49:04.646Z,1.95
2022-09-03T13:52:04.196Z,1.67
2022-09-03T13:54:54.702Z,2.33
2022-09-03T13:57:28.238Z,2.10
2022-09-03T14:00:25.166Z,2.53
2022-09-03T14:03:32.687Z,2.30
2022-09-03T14:06:33.314Z,2.15
2022-09-03T14:09:36.219Z,2.20
2022-09-03T14:12:34.435Z,2.05
2022-09-03T14:15:35.938Z,2.50
2022-09-03T14:18:58.492Z,2.15
2022-09-03T14:21:59.841Z,2.03
2022-09-03T14:24:45.991Z,2.05
2022-09-03T14:27:13.967Z,2.25
2022-09-03T14:57:27.720Z,2.17
2022-09-03T15:00:29.539Z,2.00
2022-09-03T15:07:59.620Z,2.00
2022-09-03T15:10:56.875Z,1.90
2022-09-03T15:13:54.681Z,2.50
2022-09-03T15:17:14.189Z,2.35
2022-09-03T15:20:07.518Z,2.28
2022-09-03T15:23:26.716Z,2.53
2022-09-03T15:26:37.359Z,2.78
2022-09-03T15:29:35.072Z,2.88
2022-09-03T15:32:48.054Z,2.85
2022-09-03T15:36:16.317Z,2.50
2022-09-03T15:39:23.470Z,2.63
2022-09-03T15:42:27.393Z,3.67
2022-09-03T15:45:15.982Z,3.30
2022-09-03T15:47:51.940Z,3.10
2022-09-03T15:51:10.651Z,2.55
2022-09-03T15:53:47.581Z,2.38
2022-09-03T15:56:32.455Z,2.13
2022-09-03T15:59:36.040Z,2.72
2022-09-03T16:02:52.460Z,2.60
2022-09-03T16:05:45.656Z,2.55
2022-09-03T16:08:43.764Z,2.70
2022-09-03T16:11:40.568Z,2.67
2022-09-03T16:14:28.877Z,3.42
2022-09-03T16:17:07.336Z,2.80
2022-09-03T16:20:10.257Z,2.80
2022-09-03T16:23:27.562Z,2.92
2022-09-03T16:26:27.593Z,3.25
2022-09-03T16:29:07.575Z,2.50
2022-09-03T16:31:55.500Z,2.30
2022-09-03T16:35:06.334Z,3.03
2022-09-03T16:38:01.219Z,2.70
2022-09-03T16:41:16.902Z,2.40
2022-09-03T16:44:38.777Z,2.42
2022-09-03T16:47:50.298Z,3.35
2022-09-03T16:51:21.801Z,2.65
2022-09-03T16:54:57.252Z,3.00
2022-09-03T16:58:34.811Z,2.88
2022-09-03T17:02:39.598Z,3.17
2022-09-03T17:06:07.244Z,3.10
2022-09-03T17:09:23.725Z,3.33
2022-09-03T17:12:21.469Z,2.95
2022-09-03T17:15:11.940Z,2.92
2022-09-03T17:18:26.680Z,3.17
2022-09-03T17:21:55.047Z,3.70
2022-09-03T17:24:51.406Z,3.17
2022-09-03T17:27:31.810Z,2.88
2022-09-03T17:30:40.715Z,3.28
2022-09-03T17:33:40.205Z,3.45
2022-09-03T17:36:27.401Z,3.65
2022-09-03T17:40:01.888Z,3.20
2022-09-03T17:43:35.060Z,2.95
2022-09-03T17:46:25.363Z,3.40
2022-09-03T17:49:02.911Z,4.05
2022-09-03T17:52:11.606Z,3.90
2022-09-03T17:54:50.129Z,3.80
2022-09-03T17:57:31.901Z,4.22
2022-09-03T18:00:07.192Z,4.35
2022-09-03T18:03:01.919Z,3.72
2022-09-03T18:05:48.214Z,3.30
2022-09-03T18:08:43.811Z,3.15
2022-09-03T18:11:37.396Z,2.80
2022-09-03T18:14:51.633Z,3.38
2022-09-03T18:17:57.995Z,3.03
2022-09-03T18:21:23.948Z,3.50
2022-09-03T18:24:43.018Z,3.65
2022-09-03T18:27:51.177Z,3.25
2022-09-03T18:30:38.220Z,3.08
2022-09-03T18:33:24.161Z,3.03
2022-09-03T18:36:09.891Z,3.20
2022-09-03T18:38:59.218Z,3.45
2022-09-03T18:42:22.303Z,3.28
2022-09-03T18:46:50.751Z,3.30
2022-09-03T18:49:48.699Z,3.80
2022-09-03T18:53:00.856Z,4.10
2022-09-03T18:56:20.928Z,4.13
2022-09-03T18:59:48.453Z,4.35
2022-09-03T19:03:10.137Z,4.55
2022-09-03T19:06:37.412Z,3.60
2022-09-03T19:10:08.892Z,3.78
2022-09-03T19:13:20.204Z,3.70
2022-09-03T19:17:20.023Z,3.60
2022-09-03T19:20:43.786Z,3.70
2022-09-03T19:27:56.970Z,3.13
2022-09-03T20:02:06.593Z,3.15
2022-09-03T20:05:22.253Z,3.80
2022-09-03T20:08:15.586Z,3.55
2022-09-03T20:10:50.066Z,2.83
2022-09-03T20:13:23.594Z,3.15
2022-09-03T20:16:36.139Z,3.53
2022-09-03T20:19:31.829Z,3.58
2022-09-03T20:23:01.477Z,3.10
2022-09-03T20:26:26.255Z,3.25
2022-09-03T20:29:41.729Z,3.53
2022-09-03T20:32:56.903Z,3.75
2022-09-03T20:36:05.265Z,4.05
2022-09-03T20:39:07.054Z,3.95
2022-09-03T20:42:08.956Z,3.58
2022-09-03T20:45:16.003Z,3.22
2022-09-03T20:48:22.156Z,2.88
2022-09-03T20:51:16.156Z,3.17
2022-09-03T20:54:19.271Z,2.85
2022-09-03T20:56:51.451Z,3.85
2022-09-03T20:59:44.579Z,4.00
2022-09-03T21:03:07.633Z,3.20
2022-09-03T21:06:17.254Z,3.30
2022-09-03T21:09:09.980Z,3.40
2022-09-03T21:12:45.573Z,2.78
2022-09-03T21:15:36.431Z,3.35
2022-09-03T21:18:29.847Z,2.75
2022-09-03T21:21:45.709Z,3.42
2022-09-03T21:24:58.521Z,3.47
2022-09-03T21:27:43.804Z,3.10
2022-09-03T21:30:19.576Z,3.58
2022-09-03T21:33:06.694Z,3.05
2022-09-03T21:35:44.535Z,4.05
2022-09-03T21:38:28.243Z,3.67
2022-09-03T21:41:32.740Z,4.38
2022-09-03T21:44:41.494Z,3.10
2022-09-03T21:47:19.213Z,3.22
2022-09-03T21:50:16.768Z,3.63
2022-09-03T21:53:10.551Z,2.80
2022-09-03T21:56:38.223Z,3.38
2022-09-03T21:59:56.020Z,2.83
2022-09-03T22:02:32.881Z,3.13
2022-09-03T22:05:03.714Z,2.95
2022-09-03T22:07:57.384Z,3.05
2022-09-03T22:10:35.348Z,3.03
2022-09-03T22:13:31.310Z,3.22
2022-09-03T22:16:24.683Z,3.03
2022-09-03T22:18:54.151Z,3.13
2022-09-03T22:21:40.403Z,2.35
2022-09-03T22:25:02.770Z,3.00
2022-09-03T22:28:08.492Z,2.72
2022-09-03T22:31:05.940Z,3.20
2022-09-03T22:34:40.476Z,2.22
2022-09-03T22:37:44.790Z,2.63
2022-09-03T22:40:52.551Z,3.00
2022-09-03T22:43:37.669Z,2.85
2022-09-03T22:46:14.863Z,3.03
2022-09-03T22:49:19.679Z,3.00
2022-09-03T22:53:04.627Z,2.78
2022-09-03T22:55:34.063Z,3.08
2022-09-03T22:58:23.024Z,3.22
2022-09-03T23:01:08.206Z,3.03
2022-09-03T23:03:56.955Z,2.90
2022-09-03T23:06:36.419Z,3.22
2022-09-03T23:09:15.904Z,3.10
2022-09-03T23:12:41.819Z,3.30
2022-09-03T23:15:30.261Z,3.47
2022-09-03T23:18:27.171Z,3.73
2022-09-03T23:21:27.230Z,3.50
2022-09-03T23:26:49.530Z,3.22
2022-09-03T23:29:40.417Z,2.95
2022-09-03T23:32:09.409Z,2.78
2022-09-03T23:34:40.666Z,3.13
2022-09-03T23:37:43.976Z,3.17
2022-09-03T23:40:47.377Z,3.58
2022-09-03T23:44:00.536Z,3.40
2022-09-03T23:47:28.394Z,3.75
2022-09-03T23:50:26.045Z,2.67
2022-09-03T23:53:37.001Z,2.40
2022-09-03T23:56:25.681Z,2.90
2022-09-03T23:59:33.585Z,2.70
